createdAt,value
2019-05-09T03:37:31.884Z,9.25
2019-05-09T03:38:31.832Z,9.31
2019-05-09T03:39:31.761Z,9.32
2019-05-09T03:40:31.713Z,9.34
2019-05-09T03:41:31.679Z,9.31
2019-05-09T03:42:42.961Z,9.40
2019-05-09T03:43:31.585Z,9.37
2019-05-09T03:44:31.543Z,9.29
2019-05-09T03:45:31.503Z,9.40
2019-05-09T03:46:31.455Z,9.47
2019-05-09T03:47:31.418Z,9.34
2019-05-09T03:48:31.408Z,9.36
2019-05-09T03:49:31.331Z,9.36
2019-05-09T03:50:31.292Z,9.40
2019-05-09T03:51:31.261Z,9.46
2019-05-09T03:52:31.210Z,9.34
2019-05-09T03:53:31.169Z,9.29
2019-05-09T03:54:31.127Z,9.36
2019-05-09T03:55:31.081Z,9.34
2019-05-09T03:56:31.045Z,9.32
2019-05-09T03:57:31.006Z,9.34
2019-05-09T03:58:30.971Z,9.31
2019-05-09T03:59:30.918Z,9.37
2019-05-09T04:00:30.876Z,9.29
2019-05-09T04:01:30.842Z,9.28
2019-05-09T04:02:30.800Z,9.34
2019-05-09T04:03:30.758Z,9.31
2019-05-09T04:04:30.720Z,9.29
2019-05-09T04:05:30.677Z,9.32
2019-05-09T04:06:30.633Z,9.34
2019-05-09T04:07:30.591Z,9.25
2019-05-09T04:08:30.549Z,9.28
2019-05-09T04:09:30.511Z,9.34
2019-05-09T04:10:30.477Z,9.36
2019-05-09T04:11:30.433Z,9.34
2019-05-09T04:12:30.388Z,9.28
2019-05-09T04:13:30.349Z,9.37
2019-05-09T04:14:30.311Z,9.29
2019-05-09T04:15:30.273Z,9.37
2019-05-09T04:16:30.233Z,9.29
2019-05-09T04:17:30.189Z,9.37
2019-05-09T04:18:30.153Z,9.34
2019-05-09T04:19:30.103Z,9.40
2019-05-09T04:20:30.063Z,9.32
2019-05-09T04:21:30.025Z,9.32
2019-05-09T04:22:29.985Z,9.31
2019-05-09T04:23:29.951Z,9.34
2019-05-09T04:24:29.907Z,9.43
2019-05-09T04:25:29.864Z,9.46
2019-05-09T04:26:29.821Z,9.47
2019-05-09T04:27:29.828Z,9.47
2019-05-09T04:28:29.746Z,9.40
2019-05-09T04:29:29.702Z,9.56
2019-05-09T04:30:29.661Z,9.58
2019-05-09T04:31:29.622Z,9.68
2019-05-09T04:32:29.577Z,9.74
2019-05-09T04:33:29.540Z,9.65
2019-05-09T04:34:29.500Z,9.82
2019-05-09T04:35:29.465Z,9.83
2019-05-09T04:36:29.421Z,9.74
2019-05-09T04:37:31.157Z,9.76
2019-05-09T04:38:29.338Z,9.72
2019-05-09T04:39:29.297Z,9.72
2019-05-09T04:40:31.698Z,9.69
2019-05-09T04:41:29.219Z,9.77
2019-05-09T04:42:29.181Z,9.86
2019-05-09T04:43:35.600Z,9.77
2019-05-09T04:44:29.097Z,9.76
2019-05-09T04:45:33.029Z,9.86
2019-05-09T04:46:29.017Z,9.79
2019-05-09T04:47:28.979Z,9.66
2019-05-09T04:48:28.938Z,9.74
2019-05-09T04:49:29.985Z,9.87
2019-05-09T04:50:28.859Z,9.92
2019-05-09T04:51:28.813Z,9.89
2019-05-09T04:52:28.773Z,10.05
2019-05-09T04:53:28.737Z,10.10
2019-05-09T04:54:28.701Z,10.19
2019-05-09T04:55:28.662Z,10.25
2019-05-09T04:56:28.619Z,10.28
2019-05-09T04:57:28.576Z,10.35
2019-05-09T04:58:28.535Z,10.41
2019-05-09T04:59:28.564Z,10.41
2019-05-09T05:00:28.458Z,10.38
2019-05-09T05:01:28.422Z,10.51
2019-05-09T05:02:28.375Z,10.44
2019-05-09T05:03:28.441Z,10.59
2019-05-09T05:04:28.396Z,10.51
2019-05-09T05:05:28.461Z,10.53
2019-05-09T05:06:28.242Z,10.69
2019-05-09T05:07:28.673Z,10.75
2019-05-09T05:08:28.490Z,10.74
2019-05-09T05:09:28.098Z,10.78
2019-05-09T05:10:28.057Z,10.75
2019-05-09T05:11:28.083Z,10.78
2019-05-09T05:12:27.974Z,10.82
2019-05-09T05:13:29.714Z,10.87
2019-05-09T05:14:28.142Z,10.84
2019-05-09T05:15:27.862Z,10.87
2019-05-09T05:16:27.818Z,10.97
2019-05-09T05:17:28.350Z,10.96
2019-05-09T05:18:28.461Z,11.07
2019-05-09T05:19:28.472Z,11.12
2019-05-09T05:20:27.792Z,11.12
2019-05-09T05:21:28.431Z,11.04
2019-05-09T05:22:28.353Z,11.04
2019-05-09T05:23:27.608Z,11.05
2019-05-09T05:24:27.817Z,11.18
2019-05-09T05:25:27.996Z,11.23
2019-05-09T05:26:27.767Z,11.23
2019-05-09T05:27:27.864Z,11.18
2019-05-09T05:28:27.856Z,11.22
2019-05-09T05:29:28.188Z,11.25
2019-05-09T05:30:28.375Z,11.25
2019-05-09T05:31:28.508Z,11.22
2019-05-09T05:32:28.216Z,11.19
2019-05-09T05:33:27.789Z,11.14
2019-05-09T05:34:27.487Z,11.14
2019-05-09T05:35:28.420Z,11.19
2019-05-09T05:36:27.943Z,11.25
2019-05-09T05:37:28.099Z,11.30
2019-05-09T05:38:27.558Z,11.37
2019-05-09T05:39:28.377Z,11.33
2019-05-09T05:40:32.988Z,11.37
2019-05-09T05:41:28.476Z,11.47
2019-05-09T05:42:28.270Z,11.50
2019-05-09T05:43:38.572Z,11.52
2019-05-09T05:44:28.346Z,11.37
2019-05-09T05:45:28.473Z,11.44
2019-05-09T05:46:28.486Z,11.48
2019-05-09T05:47:29.117Z,11.44
2019-05-09T05:48:27.899Z,11.44
2019-05-09T05:49:27.946Z,11.40
2019-05-09T05:50:28.090Z,11.41
2019-05-09T05:51:27.701Z,11.26
2019-05-09T05:52:27.716Z,11.32
2019-05-09T05:53:27.767Z,11.25
2019-05-09T05:54:27.704Z,11.35
2019-05-09T05:55:27.453Z,11.32
2019-05-09T05:56:27.991Z,11.37
2019-05-09T05:57:27.927Z,11.50
2019-05-09T05:58:28.208Z,11.51
2019-05-09T05:59:28.351Z,11.47
2019-05-09T06:00:28.362Z,11.51
2019-05-09T06:01:27.922Z,11.70
2019-05-09T06:02:27.971Z,11.66
2019-05-09T06:03:28.077Z,11.75
2019-05-09T06:04:27.537Z,11.80
2019-05-09T06:05:27.810Z,11.97
2019-05-09T06:06:27.461Z,12.04
2019-05-09T06:07:25.825Z,12.18
2019-05-09T06:08:27.577Z,12.25
2019-05-09T06:09:27.877Z,12.15
2019-05-09T06:10:25.710Z,12.20
2019-05-09T06:11:27.901Z,12.18
2019-05-09T06:12:27.542Z,12.24
2019-05-09T06:13:27.420Z,12.24
2019-05-09T06:14:25.553Z,12.24
2019-05-09T06:15:25.520Z,12.21
2019-05-09T06:16:25.475Z,12.20
2019-05-09T06:17:25.437Z,12.20
2019-05-09T06:18:27.471Z,12.27
2019-05-09T06:19:25.373Z,12.17
2019-05-09T06:20:25.320Z,12.06
2019-05-09T06:21:25.283Z,12.04
2019-05-09T06:22:27.469Z,12.03
2019-05-09T06:23:25.211Z,11.91
2019-05-09T06:24:25.172Z,11.87
2019-05-09T06:25:25.144Z,11.86
2019-05-09T06:26:25.092Z,11.66
2019-05-09T06:27:27.357Z,11.72
2019-05-09T06:28:27.332Z,11.70
2019-05-09T06:29:24.989Z,11.68
2019-05-09T06:30:24.941Z,11.60
2019-05-09T06:31:24.903Z,11.55
2019-05-09T06:32:24.866Z,11.54
2019-05-09T06:33:24.830Z,11.57
2019-05-09T06:34:24.785Z,11.60
2019-05-09T06:35:24.744Z,11.57
2019-05-09T06:36:24.717Z,11.55
2019-05-09T06:37:24.670Z,11.60
2019-05-09T06:38:24.631Z,11.52
2019-05-09T06:39:24.589Z,11.48
2019-05-09T06:40:24.551Z,11.50
2019-05-09T06:41:24.515Z,11.55
2019-05-09T06:42:25.486Z,11.59
2019-05-09T06:43:24.440Z,11.54
2019-05-09T06:44:24.402Z,11.65
2019-05-09T06:45:24.363Z,11.57
2019-05-09T06:46:24.323Z,11.63
2019-05-09T06:47:24.282Z,11.55
2019-05-09T06:48:24.243Z,11.65
2019-05-09T06:49:28.305Z,11.68
2019-05-09T06:50:24.177Z,11.45
2019-05-09T06:51:24.132Z,11.51
2019-05-09T06:52:24.090Z,11.47
2019-05-09T06:53:24.053Z,11.50
2019-05-09T06:54:24.014Z,11.50
2019-05-09T06:55:23.977Z,11.50
2019-05-09T06:56:23.939Z,11.43
2019-05-09T06:57:23.898Z,11.47
2019-05-09T06:58:23.863Z,11.50
2019-05-09T06:59:23.817Z,11.44
2019-05-09T07:00:23.780Z,11.47
2019-05-09T07:01:23.749Z,11.54
2019-05-09T07:02:23.706Z,11.50
2019-05-09T07:03:23.667Z,11.52
2019-05-09T07:04:23.632Z,11.59
2019-05-09T07:05:23.594Z,11.50
2019-05-09T07:06:23.552Z,11.43
2019-05-09T07:07:23.508Z,11.29
2019-05-09T07:08:23.479Z,11.65
2019-05-09T07:09:23.434Z,11.66
2019-05-09T07:10:23.397Z,11.73
2019-05-09T07:11:23.353Z,11.83
2019-05-09T07:12:23.314Z,12.00
2019-05-09T07:13:23.277Z,12.00
2019-05-09T07:14:28.948Z,12.03
2019-05-09T07:15:23.208Z,12.15
2019-05-09T07:16:23.165Z,12.15
2019-05-09T07:17:23.126Z,12.21
2019-05-09T07:18:23.085Z,12.22
2019-05-09T07:19:23.044Z,12.20
2019-05-09T07:20:23.008Z,12.22
2019-05-09T07:21:22.969Z,12.25
2019-05-09T07:22:22.933Z,12.21
2019-05-09T07:23:22.899Z,12.21
2019-05-09T07:24:22.854Z,12.09
2019-05-09T07:25:22.816Z,12.12
2019-05-09T07:26:22.779Z,12.07
2019-05-09T07:27:22.742Z,12.04
2019-05-09T07:28:22.708Z,12.04
2019-05-09T07:29:22.669Z,12.04
2019-05-09T07:30:22.630Z,12.06
2019-05-09T07:31:22.584Z,12.21
2019-05-09T07:32:22.545Z,12.31
2019-05-09T07:33:22.509Z,12.57
2019-05-09T07:34:22.473Z,12.70
2019-05-09T07:35:22.435Z,12.94
2019-05-09T07:36:22.401Z,13.13
2019-05-09T07:37:22.357Z,13.04
2019-05-09T07:38:22.318Z,13.13
2019-05-09T07:39:22.277Z,13.12
2019-05-09T07:40:22.246Z,13.27
2019-05-09T07:41:33.602Z,13.16
2019-05-09T07:43:28.163Z,13.05
2019-05-09T07:44:33.182Z,13.09
2019-05-09T07:45:28.135Z,13.01
2019-05-09T07:46:28.511Z,13.03
2019-05-09T07:47:28.160Z,12.94
2019-05-09T07:48:28.499Z,12.90
2019-05-09T07:49:28.243Z,12.80
2019-05-09T07:50:27.708Z,12.72
2019-05-09T07:51:27.499Z,12.73
2019-05-09T07:52:28.259Z,12.79
2019-05-09T07:53:28.272Z,12.85
2019-05-09T07:54:29.213Z,12.80
2019-05-09T07:55:27.422Z,12.90
2019-05-09T07:56:28.260Z,12.93
2019-05-09T07:57:28.377Z,12.98
2019-05-09T07:58:27.891Z,12.95
2019-05-09T07:59:27.458Z,12.95
2019-05-09T08:00:27.701Z,12.79
2019-05-09T08:01:27.950Z,12.65
2019-05-09T08:02:27.951Z,12.60
2019-05-09T08:03:27.548Z,12.62
2019-05-09T08:04:28.403Z,12.61
2019-05-09T08:05:27.917Z,12.60
2019-05-09T08:06:28.472Z,12.55
2019-05-09T08:07:28.339Z,12.67
2019-05-09T08:08:27.660Z,12.61
2019-05-09T08:09:27.914Z,12.65
2019-05-09T08:10:28.553Z,12.60
2019-05-09T08:11:25.523Z,12.70
2019-05-09T08:12:28.174Z,12.60
2019-05-09T08:13:25.446Z,12.64
2019-05-09T08:14:27.846Z,12.58
2019-05-09T08:15:27.814Z,12.54
2019-05-09T08:16:27.246Z,12.42
2019-05-09T08:17:25.300Z,12.55
2019-05-09T08:18:25.260Z,12.60
2019-05-09T08:19:27.340Z,12.47
2019-05-09T08:20:27.161Z,12.45
2019-05-09T08:21:27.470Z,12.37
2019-05-09T08:22:26.017Z,12.37
2019-05-09T08:23:27.278Z,12.45
2019-05-09T08:24:27.553Z,12.32
2019-05-09T08:25:27.426Z,12.37
2019-05-09T08:26:24.957Z,12.39
2019-05-09T08:27:24.919Z,12.27
2019-05-09T08:28:24.886Z,12.37
2019-05-09T08:29:24.849Z,12.39
2019-05-09T08:30:24.805Z,12.45
2019-05-09T08:31:24.766Z,12.37
2019-05-09T08:32:24.728Z,12.36
2019-05-09T08:33:24.690Z,12.32
2019-05-09T08:34:24.649Z,12.28
2019-05-09T08:35:24.617Z,12.32
2019-05-09T08:36:24.579Z,12.25
2019-05-09T08:37:24.540Z,12.31
2019-05-09T08:38:24.502Z,12.32
2019-05-09T08:39:24.460Z,12.31
2019-05-09T08:40:24.423Z,12.36
2019-05-09T08:41:24.389Z,12.37
2019-05-09T08:42:24.350Z,12.32
2019-05-09T08:43:24.312Z,12.37
2019-05-09T08:44:24.272Z,12.39
2019-05-09T08:45:27.934Z,12.29
2019-05-09T08:46:24.194Z,12.35
2019-05-09T08:47:24.160Z,12.40
2019-05-09T08:48:24.122Z,12.39
2019-05-09T08:49:24.083Z,12.39
2019-05-09T08:50:24.057Z,12.47
2019-05-09T08:51:24.004Z,12.39
2019-05-09T08:52:23.967Z,12.25
2019-05-09T08:53:23.928Z,12.15
2019-05-09T08:54:23.889Z,12.18
2019-05-09T08:55:23.856Z,12.39
2019-05-09T08:56:23.820Z,12.18
2019-05-09T08:57:23.777Z,12.24
2019-05-09T08:58:23.743Z,12.12
2019-05-09T08:59:23.706Z,12.07
2019-05-09T09:00:23.665Z,12.24
2019-05-09T09:01:34.880Z,12.22
2019-05-09T09:02:23.590Z,12.29
2019-05-09T09:03:23.547Z,12.25
2019-05-09T09:04:23.510Z,12.24
2019-05-09T09:05:23.479Z,12.31
2019-05-09T09:06:23.447Z,12.35
2019-05-09T09:07:23.403Z,12.37
2019-05-09T09:08:23.361Z,12.31
2019-05-09T09:09:23.329Z,12.18
2019-05-09T09:10:23.286Z,12.20
2019-05-09T09:11:23.245Z,12.22
2019-05-09T09:12:31.318Z,12.28
2019-05-09T09:13:23.168Z,12.37
2019-05-09T09:14:23.135Z,12.40
2019-05-09T09:15:23.092Z,12.45
2019-05-09T09:16:23.071Z,12.47
2019-05-09T09:17:23.019Z,12.45
2019-05-09T09:18:22.977Z,12.50
2019-05-09T09:19:22.943Z,12.57
2019-05-09T09:20:22.907Z,12.47
2019-05-09T09:21:22.864Z,12.62
2019-05-09T09:22:22.830Z,12.62
2019-05-09T09:23:22.785Z,12.68
2019-05-09T09:24:22.751Z,12.73
2019-05-09T09:25:22.710Z,12.67
2019-05-09T09:26:22.672Z,12.70
2019-05-09T09:27:22.639Z,12.54
2019-05-09T09:28:22.604Z,12.53
2019-05-09T09:29:22.561Z,12.55
2019-05-09T09:30:25.103Z,12.57
2019-05-09T09:31:22.487Z,12.55
2019-05-09T09:32:22.447Z,12.55
2019-05-09T09:33:22.415Z,12.58
2019-05-09T09:34:22.375Z,12.65
2019-05-09T09:35:22.332Z,12.82
2019-05-09T09:36:22.296Z,12.72
2019-05-09T09:37:22.257Z,12.68
2019-05-09T09:51:00.590Z,13.78
2019-05-09T09:52:00.535Z,13.87
2019-05-09T09:53:00.488Z,13.90
2019-05-09T09:54:00.439Z,13.93
2019-05-09T09:55:00.407Z,13.99
2019-05-09T09:56:00.387Z,14.00
2019-05-09T09:57:00.319Z,13.92
2019-05-09T09:58:00.298Z,14.10
2019-05-09T09:59:00.236Z,14.14
2019-05-09T10:00:00.199Z,14.11
2019-05-09T10:01:03.172Z,14.05
2019-05-09T10:02:00.125Z,14.18
2019-05-09T10:03:00.145Z,14.22
2019-05-09T10:04:14.507Z,14.33
2019-05-09T10:05:00.005Z,14.33
2019-05-09T10:05:59.968Z,14.41
2019-05-09T10:06:59.934Z,14.36
2019-05-09T10:07:59.894Z,14.25
2019-05-09T10:08:59.855Z,14.32
2019-05-09T10:09:59.824Z,14.20
2019-05-09T10:10:59.781Z,14.20
2019-05-09T10:12:00.779Z,14.25
2019-05-09T10:13:03.785Z,14.36
2019-05-09T10:13:59.665Z,14.45
2019-05-09T10:14:59.630Z,14.53
2019-05-09T10:15:59.592Z,14.54
2019-05-09T10:16:59.553Z,14.63
2019-05-09T10:17:59.518Z,14.63
2019-05-09T10:18:59.483Z,14.79
2019-05-09T10:19:59.444Z,14.86
2019-05-09T10:20:59.406Z,14.96
2019-05-09T10:21:59.372Z,15.09
2019-05-09T10:23:10.071Z,15.19
2019-05-09T10:23:59.296Z,15.03
2019-05-09T10:24:59.257Z,15.03
2019-05-09T10:25:59.219Z,15.07
2019-05-09T10:26:59.204Z,15.03
2019-05-09T10:27:59.149Z,14.86
2019-05-09T10:28:59.113Z,14.85
2019-05-09T10:29:59.083Z,14.82
2019-05-09T10:30:59.036Z,14.69
2019-05-09T10:31:59.002Z,14.73
2019-05-09T10:32:58.967Z,14.62
2019-05-09T10:33:58.935Z,14.73
2019-05-09T10:34:58.889Z,14.73
2019-05-09T10:36:04.131Z,14.88
2019-05-09T10:36:58.824Z,15.03
2019-05-09T10:37:59.061Z,15.09
2019-05-09T10:38:58.749Z,15.18
2019-05-09T10:39:58.713Z,15.22
2019-05-09T10:41:01.252Z,15.11
2019-05-09T10:41:58.641Z,15.07
2019-05-09T10:42:58.752Z,15.17
2019-05-09T10:43:58.565Z,15.25
2019-05-09T10:44:58.528Z,15.22
2019-05-09T10:45:58.491Z,15.10
2019-05-09T10:47:01.870Z,15.14
2019-05-09T10:47:58.423Z,15.19
2019-05-09T10:48:58.724Z,15.14
2019-05-09T10:49:58.346Z,15.24
2019-05-09T10:51:04.565Z,15.18
2019-05-09T10:51:58.277Z,15.04
2019-05-09T10:52:58.590Z,15.03
2019-05-09T10:53:58.828Z,15.00
2019-05-09T10:54:58.211Z,15.03
2019-05-09T10:55:58.131Z,15.04
2019-05-09T10:56:58.166Z,15.06
2019-05-09T10:58:02.228Z,15.06
2019-05-09T10:58:58.611Z,15.03
2019-05-09T10:59:58.134Z,15.03
2019-05-09T11:00:58.654Z,14.99
2019-05-09T11:01:58.190Z,15.04
2019-05-09T11:02:58.392Z,15.06
2019-05-09T11:03:58.936Z,15.11
2019-05-09T11:04:57.860Z,14.97
2019-05-09T11:05:58.052Z,14.91
2019-05-09T11:06:58.300Z,14.73
2019-05-09T11:07:58.874Z,14.85
2019-05-09T11:08:58.330Z,14.89
2019-05-09T11:09:58.811Z,14.86
2019-05-09T11:10:58.048Z,14.78
2019-05-09T11:12:00.922Z,14.84
2019-05-09T11:12:58.425Z,14.85
2019-05-09T11:13:58.662Z,14.78
2019-05-09T11:14:59.374Z,14.68
2019-05-09T11:15:58.308Z,14.62
2019-05-09T11:17:07.813Z,14.54
2019-05-09T11:17:57.783Z,14.60
2019-05-09T11:18:58.485Z,14.53
2019-05-09T11:19:58.732Z,14.72
2019-05-09T11:20:58.084Z,14.73
2019-05-09T11:21:58.612Z,14.70
2019-05-09T11:22:58.219Z,14.79
2019-05-09T11:23:58.306Z,14.72
2019-05-09T11:24:58.011Z,14.70
2019-05-09T11:25:58.089Z,14.72
2019-05-09T11:26:58.805Z,14.82
2019-05-09T11:28:10.152Z,14.82
2019-05-09T11:28:58.850Z,14.81
2019-05-09T11:29:57.787Z,14.88
2019-05-09T11:30:58.400Z,14.96
2019-05-09T11:31:58.723Z,15.02
2019-05-09T11:32:56.796Z,14.99
2019-05-09T11:33:57.940Z,15.00
2019-05-09T11:34:57.681Z,15.04
2019-05-09T11:35:58.043Z,15.17
2019-05-09T11:36:57.873Z,15.07
2019-05-09T11:37:58.721Z,15.00
2019-05-09T11:38:59.806Z,15.06
2019-05-09T11:39:58.036Z,14.97
2019-05-09T11:40:57.908Z,15.07
2019-05-09T11:41:58.534Z,15.03
2019-05-09T11:42:56.447Z,14.97
2019-05-09T11:43:59.188Z,14.99
2019-05-09T11:44:58.009Z,15.04
2019-05-09T11:45:58.049Z,15.04
2019-05-09T11:46:58.200Z,15.15
2019-05-09T11:47:58.278Z,15.06
2019-05-09T11:48:57.953Z,15.07
2019-05-09T11:49:57.856Z,15.22
2019-05-09T11:50:57.980Z,15.21
2019-05-09T11:51:57.719Z,15.18
2019-05-09T11:52:56.074Z,15.19
2019-05-09T11:53:57.856Z,15.09
2019-05-09T11:54:57.896Z,15.17
2019-05-09T11:55:57.825Z,15.19
2019-05-09T11:56:57.625Z,15.22
2019-05-09T11:57:58.782Z,15.11
2019-05-09T11:58:57.707Z,15.22
2019-05-09T11:59:57.676Z,15.14
2019-05-09T12:00:55.784Z,15.22
2019-05-09T12:01:58.376Z,15.24
2019-05-09T12:02:57.982Z,15.24
2019-05-09T12:03:57.600Z,15.33
2019-05-09T12:04:55.644Z,15.43
2019-05-09T12:05:58.170Z,15.68
2019-05-09T12:06:57.584Z,15.75
2019-05-09T12:07:57.933Z,15.84
2019-05-09T12:08:55.501Z,15.73
2019-05-09T12:09:55.470Z,15.79
2019-05-09T12:10:57.377Z,15.67
2019-05-09T12:11:55.395Z,15.62
2019-05-09T12:12:57.480Z,15.61
2019-05-09T12:13:57.915Z,15.70
2019-05-09T12:14:55.288Z,15.70
2019-05-09T12:15:55.253Z,15.72
2019-05-09T12:16:55.218Z,15.76
2019-05-09T12:18:02.147Z,15.84
2019-05-09T12:18:55.143Z,15.92
2019-05-09T12:20:09.097Z,15.90
2019-05-09T12:20:55.074Z,15.92
2019-05-09T12:21:55.036Z,15.91
2019-05-09T12:22:55.005Z,16.08
2019-05-09T12:23:54.968Z,16.16
2019-05-09T12:24:54.932Z,16.16
2019-05-09T12:25:54.896Z,16.17
2019-05-09T12:26:57.165Z,16.13
2019-05-09T12:27:54.829Z,16.15
2019-05-09T12:28:54.792Z,16.15
2019-05-09T12:29:54.769Z,16.12
2019-05-09T12:30:54.716Z,16.04
2019-05-09T12:31:54.686Z,15.86
2019-05-09T12:32:54.646Z,15.75
2019-05-09T12:33:54.622Z,15.75
2019-05-09T12:34:54.578Z,15.64
2019-05-09T12:35:54.545Z,15.57
2019-05-09T12:36:54.510Z,15.44
2019-05-09T12:37:54.474Z,15.43
2019-05-09T12:38:54.447Z,15.31
2019-05-09T12:39:54.399Z,15.19
2019-05-09T12:40:54.374Z,15.09
2019-05-09T12:41:54.337Z,15.14
2019-05-09T12:42:54.294Z,15.11
2019-05-09T12:43:54.257Z,15.10
2019-05-09T12:44:54.220Z,15.17
2019-05-09T12:45:54.186Z,15.10
2019-05-09T12:46:54.158Z,15.09
2019-05-09T12:48:07.605Z,14.99
2019-05-09T12:48:54.083Z,15.02
2019-05-09T12:49:54.047Z,14.96
2019-05-09T12:50:54.028Z,14.91
2019-05-09T12:51:53.973Z,14.91
2019-05-09T12:52:53.936Z,14.89
2019-05-09T12:53:53.901Z,14.88
2019-05-09T12:54:53.867Z,14.78
2019-05-09T12:55:53.831Z,14.77
2019-05-09T12:56:53.790Z,14.70
2019-05-09T12:57:53.757Z,14.73
2019-05-09T12:58:53.721Z,14.72
2019-05-09T12:59:53.690Z,14.78
2019-05-09T13:00:53.652Z,14.79
2019-05-09T13:01:53.621Z,14.86
2019-05-09T13:02:53.577Z,14.82
2019-05-09T13:03:53.538Z,14.86
2019-05-09T13:04:53.503Z,14.82
2019-05-09T13:05:53.469Z,14.68
2019-05-09T13:06:53.434Z,14.78
2019-05-09T13:07:53.401Z,14.82
2019-05-09T13:08:53.368Z,14.73
2019-05-09T13:09:53.332Z,14.72
2019-05-09T13:10:53.287Z,14.78
2019-05-09T13:11:53.249Z,14.82
2019-05-09T13:12:53.221Z,14.86
2019-05-09T13:13:53.182Z,14.91
2019-05-09T13:14:53.144Z,14.84
2019-05-09T13:15:53.105Z,14.78
2019-05-09T13:16:53.813Z,14.84
2019-05-09T13:17:53.038Z,14.77
2019-05-09T13:18:53.001Z,14.73
2019-05-09T13:19:52.966Z,14.81
2019-05-09T13:20:52.931Z,14.79
2019-05-09T13:21:52.893Z,14.82
2019-05-09T13:22:52.863Z,14.84
2019-05-09T13:23:52.818Z,14.82
2019-05-09T13:24:52.782Z,14.79
2019-05-09T13:25:52.747Z,14.84
2019-05-09T13:26:52.711Z,14.89
2019-05-09T13:27:53.200Z,14.86
2019-05-09T13:28:52.637Z,14.97
2019-05-09T13:29:52.602Z,14.94
2019-05-09T13:30:52.573Z,14.89
2019-05-09T13:31:52.543Z,14.89
2019-05-09T13:32:52.496Z,15.00
2019-05-09T13:33:52.460Z,14.99
2019-05-09T13:34:52.423Z,15.00
2019-05-09T13:35:52.382Z,14.99
2019-05-09T13:36:52.350Z,15.02
2019-05-09T13:37:52.315Z,14.96
2019-05-09T13:39:00.554Z,15.06
2019-05-09T13:39:52.243Z,15.02
2019-05-09T13:40:53.656Z,15.11
2019-05-09T13:42:00.821Z,15.21
2019-05-09T13:43:59.109Z,15.25
2019-05-09T13:44:56.518Z,15.44
2019-05-09T13:45:58.677Z,15.33
2019-05-09T13:46:58.265Z,15.28
2019-05-09T13:47:57.892Z,15.21
2019-05-09T13:49:09.942Z,15.11
2019-05-09T13:49:58.906Z,14.99
2019-05-09T13:50:57.798Z,15.00
2019-05-09T13:52:01.267Z,14.88
2019-05-09T13:52:58.287Z,14.81
2019-05-09T13:53:59.088Z,14.77
2019-05-09T13:54:58.445Z,14.77
2019-05-09T13:55:57.817Z,14.84
2019-05-09T13:56:58.719Z,14.85
2019-05-09T13:57:59.319Z,14.84
2019-05-09T13:58:57.991Z,14.89
2019-05-09T13:59:58.302Z,14.81
2019-05-09T14:01:02.174Z,14.70
2019-05-09T14:01:57.966Z,14.68
2019-05-09T14:02:55.866Z,14.59
2019-05-09T14:03:57.686Z,14.40
2019-05-09T14:04:58.099Z,14.37
2019-05-09T14:05:58.515Z,14.35
2019-05-09T14:06:55.717Z,14.37
2019-05-09T14:07:57.484Z,14.33
2019-05-09T14:08:55.644Z,14.33
2019-05-09T14:09:55.606Z,14.35
2019-05-09T14:10:55.575Z,14.48
2019-05-09T14:11:58.586Z,14.45
2019-05-09T14:13:06.949Z,14.45
2019-05-09T14:13:57.433Z,14.45
2019-05-09T14:14:58.039Z,14.47
2019-05-09T14:15:57.455Z,14.51
2019-05-09T14:16:55.358Z,14.70
2019-05-09T14:17:55.320Z,14.62
2019-05-09T14:18:55.860Z,14.73
2019-05-09T14:19:55.310Z,14.72
2019-05-09T14:20:57.307Z,14.69
2019-05-09T14:21:55.174Z,14.78
2019-05-09T14:22:57.440Z,14.84
2019-05-09T14:24:09.999Z,14.88
2019-05-09T14:24:55.074Z,14.89
2019-05-09T14:25:55.033Z,14.89
2019-05-09T14:26:54.991Z,15.00
2019-05-09T14:27:54.953Z,14.99
2019-05-09T14:28:54.986Z,15.03
2019-05-09T14:29:54.887Z,15.06
2019-05-09T14:30:54.856Z,15.11
2019-05-09T14:31:54.823Z,15.15
2019-05-09T14:32:54.777Z,15.22
2019-05-09T14:33:54.734Z,15.21
2019-05-09T14:34:54.717Z,15.19
2019-05-09T14:35:54.666Z,15.25
2019-05-09T14:36:54.633Z,15.29
2019-05-09T14:37:54.595Z,15.22
2019-05-09T14:38:54.559Z,15.09
2019-05-09T14:39:58.685Z,15.06
2019-05-09T14:40:54.482Z,15.04
2019-05-09T14:41:54.446Z,15.14
2019-05-09T14:42:54.412Z,15.11
2019-05-09T14:43:54.375Z,15.03
2019-05-09T14:44:54.337Z,14.99
2019-05-09T14:45:54.299Z,15.07
2019-05-09T14:46:54.269Z,15.09
2019-05-09T14:47:54.235Z,15.10
2019-05-09T14:48:54.212Z,15.18
2019-05-09T14:49:54.161Z,15.28
2019-05-09T14:50:54.124Z,15.31
2019-05-09T14:51:54.086Z,15.39
2019-05-09T14:52:54.058Z,15.33
2019-05-09T14:53:54.011Z,15.47
2019-05-09T14:54:53.979Z,15.24
2019-05-09T14:55:53.945Z,15.24
2019-05-09T14:56:53.913Z,15.24
2019-05-09T14:57:53.874Z,15.33
2019-05-09T14:58:53.839Z,15.39
2019-05-09T14:59:53.799Z,15.40
2019-05-09T15:00:53.763Z,15.39
2019-05-09T15:02:02.379Z,15.46
2019-05-09T15:03:58.763Z,15.57
2019-05-09T15:04:58.592Z,15.72
2019-05-09T15:05:58.047Z,15.80
2019-05-09T15:06:58.063Z,15.83
2019-05-09T15:07:59.296Z,15.90
2019-05-09T15:08:58.334Z,15.86
2019-05-09T15:09:59.896Z,15.94
2019-05-09T15:10:58.346Z,16.00
2019-05-09T15:11:58.464Z,16.09
2019-05-09T15:12:58.550Z,16.05
2019-05-09T15:13:58.474Z,16.09
2019-05-09T15:14:57.779Z,16.15
2019-05-09T15:15:58.010Z,16.04
2019-05-09T15:16:57.667Z,15.86
2019-05-09T15:17:58.412Z,15.90
2019-05-09T15:18:58.417Z,15.77
2019-05-09T15:20:00.400Z,15.59
2019-05-09T15:20:58.144Z,15.67
2019-05-09T15:22:00.391Z,15.59
2019-05-09T15:22:58.786Z,15.51
2019-05-09T15:35:09.115Z,15.59
2019-05-09T15:36:09.141Z,15.73
2019-05-09T15:37:08.908Z,15.62
2019-05-09T15:38:08.552Z,15.75
2019-05-09T15:39:08.392Z,15.77
2019-05-09T15:40:08.817Z,15.73
2019-05-09T15:41:12.120Z,15.77
2019-05-09T15:42:08.268Z,15.70
2019-05-09T15:43:08.409Z,15.91
2019-05-09T15:44:08.516Z,15.86
2019-05-09T15:45:08.162Z,15.91
2019-05-09T15:46:08.377Z,15.98
2019-05-09T15:47:08.081Z,16.12
2019-05-09T15:48:08.047Z,16.08
2019-05-09T15:49:08.010Z,16.12
2019-05-09T15:50:18.416Z,16.12
2019-05-09T15:51:07.934Z,16.32
2019-05-09T15:52:07.899Z,16.36
2019-05-09T15:53:08.398Z,16.39
2019-05-09T15:54:08.327Z,16.26
2019-05-09T15:55:09.438Z,16.15
2019-05-09T15:56:08.090Z,16.21
2019-05-09T15:57:08.675Z,16.38
2019-05-09T15:58:07.686Z,16.35
2019-05-09T15:59:07.644Z,16.46
2019-05-09T16:00:08.286Z,16.41
2019-05-09T16:01:08.163Z,16.39
2019-05-09T16:02:09.155Z,16.32
2019-05-09T16:03:07.505Z,16.23
2019-05-09T16:04:08.595Z,16.33
2019-05-09T16:05:10.542Z,16.35
2019-05-09T16:06:09.017Z,16.36
2019-05-09T16:07:07.362Z,16.35
2019-05-09T16:08:09.112Z,16.32
2019-05-09T16:09:11.311Z,16.23
2019-05-09T16:10:08.557Z,16.35
2019-05-09T16:11:08.662Z,16.51
2019-05-09T16:12:07.771Z,16.49
2019-05-09T16:13:08.201Z,16.39
2019-05-09T16:14:07.596Z,16.23
2019-05-09T16:15:07.811Z,16.26
2019-05-09T16:16:08.941Z,16.20
2019-05-09T16:17:07.853Z,16.24
2019-05-09T16:18:08.596Z,16.10
2019-05-09T16:19:08.922Z,16.10
2019-05-09T16:20:08.418Z,16.05
2019-05-09T16:21:08.419Z,16.09
2019-05-09T16:22:08.017Z,16.15
2019-05-09T16:23:08.401Z,16.31
2019-05-09T16:24:08.124Z,16.23
2019-05-09T16:25:06.715Z,16.29
2019-05-09T16:26:07.767Z,16.36
2019-05-09T16:27:08.445Z,16.33
2019-05-09T16:28:08.005Z,16.33
2019-05-09T16:29:08.501Z,16.10
2019-05-09T16:30:08.459Z,16.00
2019-05-09T16:31:06.498Z,16.01
2019-05-09T16:32:08.598Z,16.12
2019-05-09T16:33:08.074Z,16.08
2019-05-09T16:34:09.174Z,16.02
2019-05-09T16:35:07.918Z,16.00
2019-05-09T16:36:06.379Z,16.32
2019-05-09T16:37:07.650Z,16.38
2019-05-09T16:38:07.989Z,16.32
2019-05-09T16:39:07.384Z,16.33
2019-05-09T16:40:08.257Z,16.39
2019-05-09T16:41:07.654Z,16.43
2019-05-09T16:42:06.113Z,16.53
2019-05-09T16:43:08.882Z,16.41
2019-05-09T16:44:07.678Z,16.58
2019-05-09T16:45:07.896Z,16.64
2019-05-09T16:46:07.554Z,16.68
2019-05-09T16:47:08.223Z,16.74
2019-05-09T16:48:11.096Z,16.81
2019-05-09T16:49:05.864Z,16.84
2019-05-09T16:50:08.244Z,16.90
2019-05-09T16:51:07.742Z,16.84
2019-05-09T16:52:07.490Z,17.01
2019-05-09T16:53:08.713Z,17.01
2019-05-09T16:54:07.387Z,16.94
2019-05-09T16:55:08.063Z,16.97
2019-05-09T16:56:05.615Z,16.91
2019-05-09T16:57:08.089Z,16.87
2019-05-09T16:58:05.541Z,16.84
2019-05-09T16:59:08.069Z,16.65